sensor_id;sensor_type;location;lat;lon;timestamp;pressure;altitude;pressure_sealevel;temperature;humidity
51147;BME280;37207;53.060;18.726;2023-06-01T00:01:42;100764.04;;;14.60;46.63
51147;BME280;37207;53.060;18.726;2023-06-01T00:04:08;100769.22;;;14.51;46.82
51147;BME280;37207;53.060;18.726;2023-06-01T00:06:35;100774.39;;;14.44;46.80
51147;BME280;37207;53.060;18.726;2023-06-01T00:09:01;100774.20;;;14.39;47.04
51147;BME280;37207;53.060;18.726;2023-06-01T00:11:28;100767.70;;;14.36;47.04
51147;BME280;37207;53.060;18.726;2023-06-01T00:13:54;100766.10;;;14.32;46.73
51147;BME280;37207;53.060;18.726;2023-06-01T00:16:19;100768.82;;;14.28;47.10
51147;BME280;37207;53.060;18.726;2023-06-01T00:18:45;100771.05;;;14.22;47.57
51147;BME280;37207;53.060;18.726;2023-06-01T00:21:11;100773.13;;;14.15;47.93
51147;BME280;37207;53.060;18.726;2023-06-01T00:23:37;100767.27;;;14.06;48.13
51147;BME280;37207;53.060;18.726;2023-06-01T00:26:07;100762.33;;;13.93;47.94
51147;BME280;37207;53.060;18.726;2023-06-01T00:28:34;100763.14;;;13.84;47.89
51147;BME280;37207;53.060;18.726;2023-06-01T00:31:00;100763.44;;;13.79;48.43
51147;BME280;37207;53.060;18.726;2023-06-01T00:33:26;100763.93;;;13.73;48.70
51147;BME280;37207;53.060;18.726;2023-06-01T00:35:52;100764.23;;;13.67;48.86
51147;BME280;37207;53.060;18.726;2023-06-01T00:38:19;100761.75;;;13.59;48.90
51147;BME280;37207;53.060;18.726;2023-06-01T00:40:46;100764.05;;;13.50;49.36
51147;BME280;37207;53.060;18.726;2023-06-01T00:43:15;100765.00;;;13.44;49.61
51147;BME280;37207;53.060;18.726;2023-06-01T00:45:42;100763.41;;;13.38;49.88
51147;BME280;37207;53.060;18.726;2023-06-01T00:48:08;100762.55;;;13.31;49.76
51147;BME280;37207;53.060;18.726;2023-06-01T00:50:34;100764.41;;;13.26;50.14
51147;BME280;37207;53.060;18.726;2023-06-01T00:53:02;100759.39;;;13.21;50.38
51147;BME280;37207;53.060;18.726;2023-06-01T00:55:28;100758.00;;;13.15;50.56
51147;BME280;37207;53.060;18.726;2023-06-01T00:57:55;100757.35;;;13.07;50.30
51147;BME280;37207;53.060;18.726;2023-06-01T01:00:21;100754.48;;;12.99;50.73
51147;BME280;37207;53.060;18.726;2023-06-01T01:02:48;100753.49;;;12.89;50.83
51147;BME280;37207;53.060;18.726;2023-06-01T01:05:15;100757.49;;;12.81;50.92
51147;BME280;37207;53.060;18.726;2023-06-01T01:13:27;100757.37;;;12.64;51.94
51147;BME280;37207;53.060;18.726;2023-06-01T01:18:50;100757.42;;;12.48;52.91
51147;BME280;37207;53.060;18.726;2023-06-01T01:21:22;100753.80;;;12.40;53.01
51147;BME280;37207;53.060;18.726;2023-06-01T01:24:26;100753.59;;;12.33;53.09
51147;BME280;37207;53.060;18.726;2023-06-01T01:29:34;100742.95;;;12.20;53.82
51147;BME280;37207;53.060;18.726;2023-06-01T01:32:04;100745.52;;;12.14;54.04
51147;BME280;37207;53.060;18.726;2023-06-01T01:34:31;100743.33;;;12.08;54.42
51147;BME280;37207;53.060;18.726;2023-06-01T01:36:58;100744.89;;;12.02;54.86
51147;BME280;37207;53.060;18.726;2023-06-01T01:39:24;100743.13;;;11.97;54.80
51147;BME280;37207;53.060;18.726;2023-06-01T01:41:50;100740.25;;;11.94;54.89
51147;BME280;37207;53.060;18.726;2023-06-01T01:44:17;100743.25;;;11.92;55.06
51147;BME280;37207;53.060;18.726;2023-06-01T01:46:59;100743.41;;;11.88;55.24
51147;BME280;37207;53.060;18.726;2023-06-01T01:49:56;100739.18;;;11.82;55.49
51147;BME280;37207;53.060;18.726;2023-06-01T01:52:42;100740.84;;;11.76;55.75
51147;BME280;37207;53.060;18.726;2023-06-01T01:55:09;100739.06;;;11.70;55.51
51147;BME280;37207;53.060;18.726;2023-06-01T01:57:37;100737.89;;;11.64;55.80
51147;BME280;37207;53.060;18.726;2023-06-01T02:00:05;100735.64;;;11.60;56.07
51147;BME280;37207;53.060;18.726;2023-06-01T02:02:39;100737.33;;;11.57;56.26
51147;BME280;37207;53.060;18.726;2023-06-01T02:05:05;100736.98;;;11.57;56.39
51147;BME280;37207;53.060;18.726;2023-06-01T02:07:31;100734.10;;;11.56;56.42
51147;BME280;37207;53.060;18.726;2023-06-01T02:10:00;100733.52;;;11.53;56.46
51147;BME280;37207;53.060;18.726;2023-06-01T02:12:26;100729.80;;;11.48;56.79
51147;BME280;37207;53.060;18.726;2023-06-01T02:14:52;100729.78;;;11.47;56.69
51147;BME280;37207;53.060;18.726;2023-06-01T02:17:18;100732.56;;;11.53;56.38
51147;BME280;37207;53.060;18.726;2023-06-01T02:19:44;100730.32;;;11.60;56.19
51147;BME280;37207;53.060;18.726;2023-06-01T02:22:10;100729.11;;;11.66;56.44
51147;BME280;37207;53.060;18.726;2023-06-01T02:24:36;100728.41;;;11.67;56.22
51147;BME280;37207;53.060;18.726;2023-06-01T02:27:02;100727.02;;;11.69;56.30
51147;BME280;37207;53.060;18.726;2023-06-01T02:29:28;100728.93;;;11.69;56.07
51147;BME280;37207;53.060;18.726;2023-06-01T02:31:53;100729.91;;;11.72;55.93
51147;BME280;37207;53.060;18.726;2023-06-01T02:34:20;100726.41;;;11.73;55.97
51147;BME280;37207;53.060;18.726;2023-06-01T02:36:46;100729.08;;;11.73;56.03
51147;BME280;37207;53.060;18.726;2023-06-01T02:39:14;100722.05;;;11.65;55.98
51147;BME280;37207;53.060;18.726;2023-06-01T02:41:40;100722.23;;;11.63;56.25
51147;BME280;37207;53.060;18.726;2023-06-01T02:44:06;100722.08;;;11.63;56.21
51147;BME280;37207;53.060;18.726;2023-06-01T02:46:32;100717.42;;;11.65;56.29
51147;BME280;37207;53.060;18.726;2023-06-01T02:48:58;100715.83;;;11.66;56.41
51147;BME280;37207;53.060;18.726;2023-06-01T02:51:24;100708.77;;;11.59;56.59
51147;BME280;37207;53.060;18.726;2023-06-01T02:53:55;100707.81;;;11.52;56.75
51147;BME280;37207;53.060;18.726;2023-06-01T02:56:21;100706.02;;;11.48;57.04
51147;BME280;37207;53.060;18.726;2023-06-01T02:59:06;100708.42;;;11.43;56.95
51147;BME280;37207;53.060;18.726;2023-06-01T03:01:35;100702.14;;;11.43;57.58
51147;BME280;37207;53.060;18.726;2023-06-01T03:04:03;100702.52;;;11.38;57.94
51147;BME280;37207;53.060;18.726;2023-06-01T03:06:34;100702.52;;;11.34;58.27
51147;BME280;37207;53.060;18.726;2023-06-01T03:09:21;100702.85;;;11.29;58.37
51147;BME280;37207;53.060;18.726;2023-06-01T03:12:06;100700.22;;;11.28;58.93
51147;BME280;37207;53.060;18.726;2023-06-01T03:14:32;100702.59;;;11.28;58.88
51147;BME280;37207;53.060;18.726;2023-06-01T03:16:58;100700.17;;;11.28;59.31
51147;BME280;37207;53.060;18.726;2023-06-01T03:19:24;100701.89;;;11.33;59.26
51147;BME280;37207;53.060;18.726;2023-06-01T03:21:52;100701.54;;;11.37;59.38
51147;BME280;37207;53.060;18.726;2023-06-01T03:24:20;100701.58;;;11.43;59.31
51147;BME280;37207;53.060;18.726;2023-06-01T03:26:48;100703.38;;;11.51;59.41
51147;BME280;37207;53.060;18.726;2023-06-01T03:29:14;100703.49;;;11.60;59.11
51147;BME280;37207;53.060;18.726;2023-06-01T03:31:41;100699.30;;;11.68;58.81
51147;BME280;37207;53.060;18.726;2023-06-01T03:34:07;100697.69;;;11.78;58.66
51147;BME280;37207;53.060;18.726;2023-06-01T03:36:32;100697.45;;;11.87;58.32
51147;BME280;37207;53.060;18.726;2023-06-01T03:39:01;100695.25;;;11.94;58.06
51147;BME280;37207;53.060;18.726;2023-06-01T03:41:34;100693.38;;;12.01;57.89
51147;BME280;37207;53.060;18.726;2023-06-01T03:44:01;100694.54;;;12.07;57.68
51147;BME280;37207;53.060;18.726;2023-06-01T03:46:27;100691.91;;;12.14;57.60
51147;BME280;37207;53.060;18.726;2023-06-01T03:48:53;100692.70;;;12.20;57.37
51147;BME280;37207;53.060;18.726;2023-06-01T03:51:19;100691.28;;;12.27;57.27
51147;BME280;37207;53.060;18.726;2023-06-01T03:53:45;100691.91;;;12.33;57.19
51147;BME280;37207;53.060;18.726;2023-06-01T03:56:11;100691.81;;;12.41;57.10
51147;BME280;37207;53.060;18.726;2023-06-01T03:58:40;100687.66;;;12.49;56.98
51147;BME280;37207;53.060;18.726;2023-06-01T04:01:06;100686.80;;;12.56;56.84
51147;BME280;37207;53.060;18.726;2023-06-01T04:03:33;100689.64;;;12.62;56.75
51147;BME280;37207;53.060;18.726;2023-06-01T04:05:59;100686.38;;;12.67;56.62
51147;BME280;37207;53.060;18.726;2023-06-01T04:08:27;100689.39;;;12.73;56.63
51147;BME280;37207;53.060;18.726;2023-06-01T04:10:53;100683.00;;;12.79;56.69
51147;BME280;37207;53.060;18.726;2023-06-01T04:13:19;100682.52;;;12.88;56.60
51147;BME280;37207;53.060;18.726;2023-06-01T04:15:46;100673.02;;;12.95;56.59
51147;BME280;37207;53.060;18.726;2023-06-01T04:18:13;100666.73;;;13.02;56.43
51147;BME280;37207;53.060;18.726;2023-06-01T04:20:52;100664.39;;;13.11;56.34
51147;BME280;37207;53.060;18.726;2023-06-01T04:23:18;100663.36;;;13.18;56.25
51147;BME280;37207;53.060;18.726;2023-06-01T04:25:44;100667.05;;;13.25;56.13
51147;BME280;37207;53.060;18.726;2023-06-01T04:28:12;100662.48;;;13.32;56.07
51147;BME280;37207;53.060;18.726;2023-06-01T04:30:38;100665.09;;;13.38;56.00
51147;BME280;37207;53.060;18.726;2023-06-01T04:33:04;100663.30;;;13.45;56.03
51147;BME280;37207;53.060;18.726;2023-06-01T04:35:31;100659.80;;;13.51;56.09
51147;BME280;37207;53.060;18.726;2023-06-01T04:37:58;100657.14;;;13.58;56.20
51147;BME280;37207;53.060;18.726;2023-06-01T04:40:25;100654.81;;;13.65;56.31
51147;BME280;37207;53.060;18.726;2023-06-01T04:42:51;100642.79;;;13.73;56.38
51147;BME280;37207;53.060;18.726;2023-06-01T04:45:21;100645.98;;;13.82;56.24
51147;BME280;37207;53.060;18.726;2023-06-01T04:47:49;100640.59;;;13.89;56.48
51147;BME280;37207;53.060;18.726;2023-06-01T04:50:27;100635.65;;;13.95;56.52
51147;BME280;37207;53.060;18.726;2023-06-01T04:52:55;100633.41;;;14.01;56.65
51147;BME280;37207;53.060;18.726;2023-06-01T04:55:21;100635.05;;;14.07;56.82
51147;BME280;37207;53.060;18.726;2023-06-01T04:57:47;100632.92;;;14.15;56.76
51147;BME280;37207;53.060;18.726;2023-06-01T05:00:14;100633.65;;;14.22;56.92
51147;BME280;37207;53.060;18.726;2023-06-01T05:02:45;100634.54;;;14.28;56.98
51147;BME280;37207;53.060;18.726;2023-06-01T05:05:13;100631.14;;;14.36;57.05
51147;BME280;37207;53.060;18.726;2023-06-01T05:07:40;100631.38;;;14.43;57.11
51147;BME280;37207;53.060;18.726;2023-06-01T05:10:11;100624.83;;;14.51;57.35
51147;BME280;37207;53.060;18.726;2023-06-01T05:12:44;100624.73;;;14.61;57.21
51147;BME280;37207;53.060;18.726;2023-06-01T05:15:11;100627.30;;;14.71;57.30
51147;BME280;37207;53.060;18.726;2023-06-01T05:17:38;100627.86;;;14.80;57.61
51147;BME280;37207;53.060;18.726;2023-06-01T05:20:08;100626.95;;;14.90;57.80
51147;BME280;37207;53.060;18.726;2023-06-01T05:22:37;100627.54;;;15.02;58.08
51147;BME280;37207;53.060;18.726;2023-06-01T05:25:03;100626.58;;;15.16;58.20
51147;BME280;37207;53.060;18.726;2023-06-01T05:27:31;100624.34;;;15.31;58.24
51147;BME280;37207;53.060;18.726;2023-06-01T05:29:57;100623.04;;;15.41;58.28
51147;BME280;37207;53.060;18.726;2023-06-01T05:32:23;100622.48;;;15.47;58.17
51147;BME280;37207;53.060;18.726;2023-06-01T05:34:49;100624.87;;;15.53;58.38
51147;BME280;37207;53.060;18.726;2023-06-01T05:37:15;100623.84;;;15.58;58.44
51147;BME280;37207;53.060;18.726;2023-06-01T05:39:41;100625.60;;;15.64;58.70
51147;BME280;37207;53.060;18.726;2023-06-01T05:42:07;100627.07;;;15.71;58.90
51147;BME280;37207;53.060;18.726;2023-06-01T05:44:36;100624.94;;;15.76;59.07
51147;BME280;37207;53.060;18.726;2023-06-01T05:47:02;100618.34;;;15.82;59.04
51147;BME280;37207;53.060;18.726;2023-06-01T05:49:28;100617.63;;;15.89;59.75
51147;BME280;37207;53.060;18.726;2023-06-01T05:51:57;100617.34;;;15.96;59.87
51147;BME280;37207;53.060;18.726;2023-06-01T05:54:24;100618.81;;;15.99;59.83
51147;BME280;37207;53.060;18.726;2023-06-01T05:56:50;100617.54;;;16.02;60.04
51147;BME280;37207;53.060;18.726;2023-06-01T05:59:16;100616.93;;;16.06;60.31
51147;BME280;37207;53.060;18.726;2023-06-01T06:01:42;100611.63;;;16.12;60.44
51147;BME280;37207;53.060;18.726;2023-06-01T06:04:10;100614.85;;;16.19;60.83
51147;BME280;37207;53.060;18.726;2023-06-01T06:06:36;100614.86;;;16.27;60.79
51147;BME280;37207;53.060;18.726;2023-06-01T06:09:03;100613.95;;;16.35;61.01
51147;BME280;37207;53.060;18.726;2023-06-01T06:11:30;100611.66;;;16.41;60.84
51147;BME280;37207;53.060;18.726;2023-06-01T06:13:56;100608.95;;;16.44;60.78
51147;BME280;37207;53.060;18.726;2023-06-01T06:16:22;100610.23;;;16.48;60.79
51147;BME280;37207;53.060;18.726;2023-06-01T06:18:48;100607.19;;;16.53;60.72
51147;BME280;37207;53.060;18.726;2023-06-01T06:21:14;100602.39;;;16.60;61.07
51147;BME280;37207;53.060;18.726;2023-06-01T06:23:40;100602.20;;;16.68;60.96
51147;BME280;37207;53.060;18.726;2023-06-01T06:26:06;100601.90;;;16.79;60.77
51147;BME280;37207;53.060;18.726;2023-06-01T06:28:32;100600.71;;;16.88;60.52
51147;BME280;37207;53.060;18.726;2023-06-01T06:30:58;100600.30;;;16.95;60.63
51147;BME280;37207;53.060;18.726;2023-06-01T06:33:24;100598.55;;;17.03;60.39
51147;BME280;37207;53.060;18.726;2023-06-01T06:35:50;100594.83;;;17.12;60.32
51147;BME280;37207;53.060;18.726;2023-06-01T06:38:16;100589.02;;;17.22;60.39
51147;BME280;37207;53.060;18.726;2023-06-01T06:40:43;100590.10;;;17.33;60.37
51147;BME280;37207;53.060;18.726;2023-06-01T06:43:08;100591.39;;;17.47;60.20
51147;BME280;37207;53.060;18.726;2023-06-01T06:45:34;100589.67;;;17.62;60.11
51147;BME280;37207;53.060;18.726;2023-06-01T06:48:00;100589.98;;;17.79;59.75
51147;BME280;37207;53.060;18.726;2023-06-01T06:50:27;100591.19;;;17.96;59.59
51147;BME280;37207;53.060;18.726;2023-06-01T06:52:52;100588.67;;;18.15;59.24
51147;BME280;37207;53.060;18.726;2023-06-01T06:55:18;100585.90;;;18.34;58.99
51147;BME280;37207;53.060;18.726;2023-06-01T06:57:44;100589.87;;;18.54;58.37
51147;BME280;37207;53.060;18.726;2023-06-01T07:00:11;100587.87;;;18.69;57.84
51147;BME280;37207;53.060;18.726;2023-06-01T07:02:40;100586.34;;;18.83;57.28
51147;BME280;37207;53.060;18.726;2023-06-01T07:05:08;100582.16;;;18.98;56.88
51147;BME280;37207;53.060;18.726;2023-06-01T07:07:34;100582.00;;;19.16;56.69
51147;BME280;37207;53.060;18.726;2023-06-01T07:10:00;100578.05;;;19.33;56.49
51147;BME280;37207;53.060;18.726;2023-06-01T07:12:26;100575.22;;;19.55;55.86
51147;BME280;37207;53.060;18.726;2023-06-01T07:14:51;100572.14;;;19.75;55.52
51147;BME280;37207;53.060;18.726;2023-06-01T07:17:17;100571.46;;;19.93;55.09
51147;BME280;37207;53.060;18.726;2023-06-01T07:19:43;100570.58;;;20.14;55.03
51147;BME280;37207;53.060;18.726;2023-06-01T07:22:09;100567.47;;;20.38;54.69
51147;BME280;37207;53.060;18.726;2023-06-01T07:24:35;100563.23;;;20.60;54.32
51147;BME280;37207;53.060;18.726;2023-06-01T07:27:01;100560.73;;;20.77;53.51
51147;BME280;37207;53.060;18.726;2023-06-01T07:29:27;100562.66;;;20.94;53.47
51147;BME280;37207;53.060;18.726;2023-06-01T07:31:53;100563.48;;;21.11;52.71
51147;BME280;37207;53.060;18.726;2023-06-01T07:34:19;100558.83;;;21.28;52.42
51147;BME280;37207;53.060;18.726;2023-06-01T07:36:46;100558.38;;;21.42;52.00
51147;BME280;37207;53.060;18.726;2023-06-01T07:39:13;100558.77;;;21.61;51.59
51147;BME280;37207;53.060;18.726;2023-06-01T07:41:39;100555.70;;;21.76;51.52
51147;BME280;37207;53.060;18.726;2023-06-01T07:44:08;100554.61;;;21.96;51.43
51147;BME280;37207;53.060;18.726;2023-06-01T07:46:34;100554.45;;;22.17;51.09
51147;BME280;37207;53.060;18.726;2023-06-01T07:49:00;100557.15;;;22.36;50.38
51147;BME280;37207;53.060;18.726;2023-06-01T07:51:26;100554.91;;;22.51;50.10
51147;BME280;37207;53.060;18.726;2023-06-01T07:53:52;100548.75;;;22.65;49.58
51147;BME280;37207;53.060;18.726;2023-06-01T07:56:18;100548.36;;;22.82;49.30
51147;BME280;37207;53.060;18.726;2023-06-01T07:58:44;100553.98;;;22.94;48.03
51147;BME280;37207;53.060;18.726;2023-06-01T08:01:10;100548.65;;;22.97;47.62
51147;BME280;37207;53.060;18.726;2023-06-01T08:03:36;100543.90;;;22.99;47.52
51147;BME280;37207;53.060;18.726;2023-06-01T08:06:02;100541.21;;;23.06;47.20
51147;BME280;37207;53.060;18.726;2023-06-01T08:08:31;100536.23;;;23.13;47.14
51147;BME280;37207;53.060;18.726;2023-06-01T08:10:57;100537.23;;;23.24;46.81
51147;BME280;37207;53.060;18.726;2023-06-01T08:13:23;100533.86;;;23.34;46.45
51147;BME280;37207;53.060;18.726;2023-06-01T08:15:52;100530.98;;;23.40;46.35
51147;BME280;37207;53.060;18.726;2023-06-01T08:18:19;100526.14;;;23.51;46.63
51147;BME280;37207;53.060;18.726;2023-06-01T08:20:48;100529.73;;;23.67;46.03
51147;BME280;37207;53.060;18.726;2023-06-01T08:23:14;100525.80;;;23.76;46.30
51147;BME280;37207;53.060;18.726;2023-06-01T08:25:44;100520.48;;;23.94;46.68
51147;BME280;37207;53.060;18.726;2023-06-01T08:28:10;100517.13;;;24.15;46.67
51147;BME280;37207;53.060;18.726;2023-06-01T08:30:36;100521.90;;;24.36;46.32
51147;BME280;37207;53.060;18.726;2023-06-01T08:33:02;100527.23;;;24.48;45.21
51147;BME280;37207;53.060;18.726;2023-06-01T08:35:28;100527.94;;;24.51;44.60
51147;BME280;37207;53.060;18.726;2023-06-01T08:37:56;100520.69;;;24.50;44.64
51147;BME280;37207;53.060;18.726;2023-06-01T08:40:22;100516.08;;;24.66;45.38
51147;BME280;37207;53.060;18.726;2023-06-01T08:42:57;100515.61;;;24.83;44.81
51147;BME280;37207;53.060;18.726;2023-06-01T08:45:23;100509.59;;;24.96;44.18
51147;BME280;37207;53.060;18.726;2023-06-01T08:47:53;100504.90;;;25.02;44.08
51147;BME280;37207;53.060;18.726;2023-06-01T08:50:20;100505.02;;;25.09;44.28
51147;BME280;37207;53.060;18.726;2023-06-01T08:52:46;100498.09;;;25.22;44.75
51147;BME280;37207;53.060;18.726;2023-06-01T08:55:13;100499.23;;;25.37;43.38
51147;BME280;37207;53.060;18.726;2023-06-01T08:57:41;100490.99;;;25.46;43.27
51147;BME280;37207;53.060;18.726;2023-06-01T09:00:11;100487.55;;;25.72;43.68
51147;BME280;37207;53.060;18.726;2023-06-01T09:02:38;100492.77;;;25.96;42.41
51147;BME280;37207;53.060;18.726;2023-06-01T09:05:06;100484.11;;;26.08;42.07
51147;BME280;37207;53.060;18.726;2023-06-01T09:07:31;100488.23;;;26.20;41.45
51147;BME280;37207;53.060;18.726;2023-06-01T09:09:58;100486.63;;;26.27;40.75
51147;BME280;37207;53.060;18.726;2023-06-01T09:12:26;100483.74;;;26.36;41.45
51147;BME280;37207;53.060;18.726;2023-06-01T09:15:13;100487.02;;;26.73;40.75
51147;BME280;37207;53.060;18.726;2023-06-01T09:17:43;100481.30;;;27.34;40.85
51147;BME280;37207;53.060;18.726;2023-06-01T09:22:47;100481.17;;;28.37;39.11
51147;BME280;37207;53.060;18.726;2023-06-01T09:25:14;100484.15;;;28.82;37.05
51147;BME280;37207;53.060;18.726;2023-06-01T09:27:50;100481.92;;;29.11;36.90
51147;BME280;37207;53.060;18.726;2023-06-01T09:30:18;100481.67;;;29.03;36.80
51147;BME280;37207;53.060;18.726;2023-06-01T09:32:48;100482.30;;;28.87;36.31
51147;BME280;37207;53.060;18.726;2023-06-01T09:35:36;100476.55;;;28.75;35.59
51147;BME280;37207;53.060;18.726;2023-06-01T09:38:03;100479.14;;;28.61;36.15
51147;BME280;37207;53.060;18.726;2023-06-01T09:40:32;100483.36;;;28.56;36.26
51147;BME280;37207;53.060;18.726;2023-06-01T09:42:59;100479.48;;;28.62;36.78
51147;BME280;37207;53.060;18.726;2023-06-01T09:45:25;100478.77;;;28.67;36.26
51147;BME280;37207;53.060;18.726;2023-06-01T09:50:59;100472.09;;;28.51;35.84
51147;BME280;37207;53.060;18.726;2023-06-01T09:53:25;100471.38;;;28.55;36.20
51147;BME280;37207;53.060;18.726;2023-06-01T09:55:59;100466.64;;;28.54;35.63
51147;BME280;37207;53.060;18.726;2023-06-01T09:58:25;100473.50;;;28.41;35.91
51147;BME280;37207;53.060;18.726;2023-06-01T10:00:51;100466.88;;;28.28;36.19
51147;BME280;37207;53.060;18.726;2023-06-01T10:03:19;100467.00;;;28.26;36.48
51147;BME280;37207;53.060;18.726;2023-06-01T10:05:47;100466.37;;;28.25;36.24
51147;BME280;37207;53.060;18.726;2023-06-01T10:08:16;100460.91;;;28.26;36.21
51147;BME280;37207;53.060;18.726;2023-06-01T10:10:45;100462.33;;;28.26;36.29
51147;BME280;37207;53.060;18.726;2023-06-01T10:13:12;100460.40;;;28.29;36.34
51147;BME280;37207;53.060;18.726;2023-06-01T10:15:38;100457.20;;;28.28;36.14
51147;BME280;37207;53.060;18.726;2023-06-01T10:18:05;100456.16;;;28.32;35.93
51147;BME280;37207;53.060;18.726;2023-06-01T10:20:35;100453.35;;;28.42;35.85
51147;BME280;37207;53.060;18.726;2023-06-01T10:23:02;100447.75;;;28.41;36.55
51147;BME280;37207;53.060;18.726;2023-06-01T10:25:33;100452.63;;;28.42;36.04
51147;BME280;37207;53.060;18.726;2023-06-01T10:28:04;100448.77;;;28.41;36.36
51147;BME280;37207;53.060;18.726;2023-06-01T10:30:34;100447.77;;;28.48;36.71
51147;BME280;37207;53.060;18.726;2023-06-01T10:33:01;100449.27;;;28.56;35.78
51147;BME280;37207;53.060;18.726;2023-06-01T10:40:34;100452.96;;;29.05;36.73
51147;BME280;37207;53.060;18.726;2023-06-01T10:43:00;100452.18;;;29.42;36.95
51147;BME280;37207;53.060;18.726;2023-06-01T10:45:39;100453.77;;;29.95;36.42
51147;BME280;37207;53.060;18.726;2023-06-01T10:48:07;100448.87;;;30.70;35.71
51147;BME280;37207;53.060;18.726;2023-06-01T10:50:34;100450.67;;;31.32;33.74
51147;BME280;37207;53.060;18.726;2023-06-01T10:53:24;100450.06;;;31.78;32.74
51147;BME280;37207;53.060;18.726;2023-06-01T10:58:47;100449.83;;;32.96;31.85
51147;BME280;37207;53.060;18.726;2023-06-01T11:01:40;100445.33;;;33.52;30.43
51147;BME280;37207;53.060;18.726;2023-06-01T11:04:07;100444.27;;;33.85;29.43
51147;BME280;37207;53.060;18.726;2023-06-01T11:06:38;100447.20;;;34.09;29.74
51147;BME280;37207;53.060;18.726;2023-06-01T11:09:06;100447.27;;;34.48;29.44
51147;BME280;37207;53.060;18.726;2023-06-01T11:14:28;100437.81;;;35.12;28.21
51147;BME280;37207;53.060;18.726;2023-06-01T11:17:34;100440.15;;;35.38;28.55
51147;BME280;37207;53.060;18.726;2023-06-01T11:20:01;100433.85;;;35.61;28.00
51147;BME280;37207;53.060;18.726;2023-06-01T11:22:34;100433.15;;;35.79;27.95
51147;BME280;37207;53.060;18.726;2023-06-01T11:25:04;100434.00;;;35.78;27.92
51147;BME280;37207;53.060;18.726;2023-06-01T11:27:30;100428.59;;;35.58;27.89
51147;BME280;37207;53.060;18.726;2023-06-01T11:29:56;100431.14;;;35.31;26.88
51147;BME280;37207;53.060;18.726;2023-06-01T11:32:22;100429.66;;;34.92;27.69
51147;BME280;37207;53.060;18.726;2023-06-01T11:34:49;100422.20;;;34.72;28.23
51147;BME280;37207;53.060;18.726;2023-06-01T11:37:18;100418.55;;;34.55;28.27
51147;BME280;37207;53.060;18.726;2023-06-01T11:39:45;100423.09;;;34.26;28.05
51147;BME280;37207;53.060;18.726;2023-06-01T11:42:14;100421.20;;;33.92;28.79
51147;BME280;37207;53.060;18.726;2023-06-01T11:44:44;100420.34;;;33.85;29.38
51147;BME280;37207;53.060;18.726;2023-06-01T11:47:11;100421.70;;;33.76;28.86
51147;BME280;37207;53.060;18.726;2023-06-01T11:49:42;100415.48;;;33.36;28.12
51147;BME280;37207;53.060;18.726;2023-06-01T11:52:10;100410.10;;;32.90;28.78
51147;BME280;37207;53.060;18.726;2023-06-01T11:54:37;100407.86;;;32.56;29.36
51147;BME280;37207;53.060;18.726;2023-06-01T11:57:04;100406.02;;;32.40;30.13
51147;BME280;37207;53.060;18.726;2023-06-01T11:59:43;100401.16;;;32.24;31.14
51147;BME280;37207;53.060;18.726;2023-06-01T12:02:35;100404.65;;;32.35;30.65
51147;BME280;37207;53.060;18.726;2023-06-01T12:05:05;100400.37;;;32.14;30.84
51147;BME280;37207;53.060;18.726;2023-06-01T12:07:50;100398.27;;;32.06;31.24
51147;BME280;37207;53.060;18.726;2023-06-01T12:10:17;100398.35;;;32.01;30.80
51147;BME280;37207;53.060;18.726;2023-06-01T12:12:44;100394.56;;;31.81;30.24
51147;BME280;37207;53.060;18.726;2023-06-01T12:15:11;100397.33;;;31.47;30.72
51147;BME280;37207;53.060;18.726;2023-06-01T12:17:52;100399.02;;;31.41;31.82
51147;BME280;37207;53.060;18.726;2023-06-01T12:20:45;100391.69;;;31.58;31.91
51147;BME280;37207;53.060;18.726;2023-06-01T12:25:49;100381.64;;;31.50;31.56
51147;BME280;37207;53.060;18.726;2023-06-01T12:28:20;100382.00;;;31.45;31.44
51147;BME280;37207;53.060;18.726;2023-06-01T12:30:47;100381.66;;;31.36;31.82
51147;BME280;37207;53.060;18.726;2023-06-01T12:33:35;100385.03;;;31.31;31.82
51147;BME280;37207;53.060;18.726;2023-06-01T12:36:02;100379.88;;;31.26;32.03
51147;BME280;37207;53.060;18.726;2023-06-01T12:41:11;100375.71;;;31.34;31.75
51147;BME280;37207;53.060;18.726;2023-06-01T12:43:38;100380.73;;;31.03;30.30
51147;BME280;37207;53.060;18.726;2023-06-01T12:46:04;100374.25;;;30.74;31.40
51147;BME280;37207;53.060;18.726;2023-06-01T12:48:34;100369.96;;;30.82;32.26
51147;BME280;37207;53.060;18.726;2023-06-01T12:51:03;100371.10;;;30.96;32.11
51147;BME280;37207;53.060;18.726;2023-06-01T12:53:30;100368.98;;;30.99;32.24
51147;BME280;37207;53.060;18.726;2023-06-01T12:55:56;100368.14;;;31.08;32.25
51147;BME280;37207;53.060;18.726;2023-06-01T12:58:22;100372.45;;;31.11;32.16
51147;BME280;37207;53.060;18.726;2023-06-01T13:00:48;100368.69;;;31.05;31.66
51147;BME280;37207;53.060;18.726;2023-06-01T13:03:14;100369.95;;;30.73;31.65
51147;BME280;37207;53.060;18.726;2023-06-01T13:05:43;100364.23;;;30.51;32.92
51147;BME280;37207;53.060;18.726;2023-06-01T13:08:13;100359.38;;;30.45;32.88
51147;BME280;37207;53.060;18.726;2023-06-01T13:10:38;100362.54;;;30.35;32.57
51147;BME280;37207;53.060;18.726;2023-06-01T13:13:07;100362.52;;;30.24;32.67
51147;BME280;37207;53.060;18.726;2023-06-01T13:15:33;100358.73;;;29.96;32.13
51147;BME280;37207;53.060;18.726;2023-06-01T13:17:58;100359.73;;;29.71;33.37
51147;BME280;37207;53.060;18.726;2023-06-01T13:20:24;100364.27;;;29.68;33.78